Time;durP1;ratioP1;P1;durP2;ratioP2;P2;SDS_P1;SDS_P2;PMS_P1;PMS_P2;Temp;Humidity;BMP_temperature;BMP_pressure;BME280_temperature;BME280_humidity;BME280_pressure;Samples;Min_cycle;Max_cycle;Signal;HPM_P1;HPM_P2
2021/10/11 00:02:02;;;;;;;19.20;10.47;;;;;;;;;;4985558;28;20581;-86
2021/10/11 00:05:33;;;;;;;16.23;11.87;;;;;;;;;;4984955;28;20593;-86
2021/10/11 00:09:17;;;;;;;22.47;11.50;;;;;;;;;;4974093;28;20661;-86
2021/10/11 00:12:28;;;;;;;16.70;10.73;;;;;;;;;;4959303;28;20601;-86
2021/10/11 00:15:42;;;;;;;19.00;10.60;;;;;;;;;;4973451;28;20602;-85
2021/10/11 00:18:47;;;;;;;18.53;10.87;;;;;;;;;;4962708;28;20645;-86
2021/10/11 00:21:53;;;;;;;16.13;10.60;;;;;;;;;;4984160;28;20921;-85
2021/10/11 00:25:28;;;;;;;18.13;11.73;;;;;;;;;;4962851;28;20545;-86
2021/10/11 00:29:05;;;;;;;19.67;13.03;;;;;;;;;;4969843;28;21017;-86
2021/10/11 00:32:42;;;;;;;21.13;13.20;;;;;;;;;;4953970;28;20578;-86
2021/10/11 00:36:20;;;;;;;19.97;12.77;;;;;;;;;;4972397;28;20577;-86
2021/10/11 00:39:27;;;;;;;21.60;12.87;;;;;;;;;;4983636;28;20624;-86
2021/10/11 00:42:42;;;;;;;21.47;12.93;;;;;;;;;;4984633;28;20542;-85
2021/10/11 00:45:46;;;;;;;16.33;11.53;;;;;;;;;;4973862;28;20593;-86
2021/10/11 00:49:04;;;;;;;18.10;12.30;;;;;;;;;;4983554;28;20649;-86
2021/10/11 00:52:08;;;;;;;19.07;12.17;;;;;;;;;;4984238;28;20612;-85
2021/10/11 00:55:21;;;;;;;24.43;11.37;;;;;;;;;;4973642;28;20546;-86
2021/10/11 00:58:46;;;;;;;17.00;12.00;;;;;;;;;;4995273;28;20641;-86
2021/10/11 01:01:52;;;;;;;20.33;12.60;;;;;;;;;;4984320;28;20557;-86
2021/10/11 01:08:53;;;;;;;14.43;10.20;;;;;;;;;;4995291;28;20629;-85
2021/10/11 01:12:06;;;;;;;16.53;11.10;;;;;;;;;;4973066;28;21095;-86
2021/10/11 01:15:11;;;;;;;17.23;11.33;;;;;;;;;;4986752;28;20589;-86
2021/10/11 01:18:15;;;;;;;16.37;10.57;;;;;;;;;;4984124;28;21210;-86
2021/10/11 01:21:22;;;;;;;15.53;10.63;;;;;;;;;;4972788;28;20842;-86
2021/10/11 01:24:35;;;;;;;15.30;10.63;;;;;;;;;;4967500;28;20598;-86
2021/10/11 01:27:40;;;;;;;16.80;11.50;;;;;;;;;;4994577;28;20673;-86
2021/10/11 01:30:54;;;;;;;17.87;11.83;;;;;;;;;;4973114;28;21203;-86
2021/10/11 01:33:58;;;;;;;20.70;11.70;;;;;;;;;;4971542;28;20625;-85
2021/10/11 01:37:08;;;;;;;19.43;12.90;;;;;;;;;;4983152;28;20602;-86
2021/10/11 01:40:13;;;;;;;20.57;12.50;;;;;;;;;;4960870;28;20620;-86
2021/10/11 01:43:18;;;;;;;23.80;13.07;;;;;;;;;;4983271;28;20604;-86
2021/10/11 01:46:22;;;;;;;22.73;13.23;;;;;;;;;;4986435;28;21227;-86
2021/10/11 01:49:26;;;;;;;26.30;15.53;;;;;;;;;;4975606;28;20630;-86
2021/10/11 01:52:30;;;;;;;25.17;15.03;;;;;;;;;;4955707;28;20618;-85
2021/10/11 01:55:34;;;;;;;23.90;14.73;;;;;;;;;;4956586;29;21078;-85
2021/10/11 01:58:38;;;;;;;22.87;14.37;;;;;;;;;;4944782;29;20642;-85
2021/10/11 02:01:42;;;;;;;19.87;13.33;;;;;;;;;;4967660;28;20903;-85
2021/10/11 02:04:47;;;;;;;19.37;13.27;;;;;;;;;;4945396;29;20540;-85
2021/10/11 02:07:50;;;;;;;20.00;13.30;;;;;;;;;;4944989;28;20670;-85
2021/10/11 02:10:55;;;;;;;21.03;12.87;;;;;;;;;;4958762;28;20629;-85
2021/10/11 02:13:59;;;;;;;19.60;12.97;;;;;;;;;;4952750;28;20613;-86
2021/10/11 02:17:03;;;;;;;22.67;14.27;;;;;;;;;;4963407;28;20594;-85
2021/10/11 02:20:09;;;;;;;19.43;13.23;;;;;;;;;;4974916;28;20586;-85
2021/10/11 02:23:13;;;;;;;20.70;14.10;;;;;;;;;;4952521;28;20586;-85
2021/10/11 02:26:17;;;;;;;22.40;13.53;;;;;;;;;;4939110;28;20634;-85
2021/10/11 02:29:32;;;;;;;18.67;13.03;;;;;;;;;;5025780;23;20698;-86
2021/10/11 02:41:45;;;;;;;22.13;12.33;;;;;;;;;;5032885;28;20632;-85
2021/10/11 02:50:07;;;;;;;23.00;14.13;;;;;;;;;;5033981;28;20656;-85
2021/10/11 02:53:58;;;;;;;26.53;14.57;;;;;;;;;;4969877;28;20601;-85
2021/10/11 02:57:02;;;;;;;21.20;14.67;;;;;;;;;;4950646;28;20970;-85
2021/10/11 03:00:08;;;;;;;19.73;13.90;;;;;;;;;;5021987;28;20622;-85
2021/10/11 03:03:12;;;;;;;19.83;13.23;;;;;;;;;;5009822;28;20592;-85
2021/10/11 03:06:16;;;;;;;21.77;13.93;;;;;;;;;;5013079;28;21231;-85
2021/10/11 03:09:20;;;;;;;19.53;13.50;;;;;;;;;;5010554;28;20647;-85
2021/10/11 03:12:24;;;;;;;21.77;14.00;;;;;;;;;;5010160;28;20584;-85
2021/10/11 03:15:28;;;;;;;20.87;13.60;;;;;;;;;;5010216;28;20602;-85
2021/10/11 03:18:32;;;;;;;19.23;13.23;;;;;;;;;;5023506;28;21235;-85
2021/10/11 03:21:36;;;;;;;21.97;13.47;;;;;;;;;;5032992;28;21162;-85
2021/10/11 03:24:40;;;;;;;20.67;13.40;;;;;;;;;;5011382;28;20536;-85
2021/10/11 03:27:45;;;;;;;20.37;12.90;;;;;;;;;;5021390;28;20662;-85
2021/10/11 03:30:49;;;;;;;20.60;14.00;;;;;;;;;;5020751;28;20640;-86
2021/10/11 03:33:53;;;;;;;24.50;14.50;;;;;;;;;;5022483;28;20951;-85
2021/10/11 03:36:57;;;;;;;21.37;13.20;;;;;;;;;;5009764;28;21160;-85
2021/10/11 03:40:01;;;;;;;19.83;13.40;;;;;;;;;;5022875;28;20544;-85
2021/10/11 03:43:05;;;;;;;22.53;13.27;;;;;;;;;;5021400;28;20548;-85
2021/10/11 03:46:10;;;;;;;22.60;13.70;;;;;;;;;;5025116;28;20540;-86
2021/10/11 03:49:14;;;;;;;21.30;13.60;;;;;;;;;;5013655;28;20639;-85
2021/10/11 03:52:18;;;;;;;22.53;13.97;;;;;;;;;;5025116;28;20599;-85
2021/10/11 03:55:22;;;;;;;19.00;13.53;;;;;;;;;;5033946;28;20587;-85
2021/10/11 03:58:27;;;;;;;18.23;13.13;;;;;;;;;;5025296;28;20633;-85
2021/10/11 04:01:31;;;;;;;18.57;12.77;;;;;;;;;;5018353;28;20944;-85
2021/10/11 04:04:36;;;;;;;21.20;13.40;;;;;;;;;;5005252;28;20540;-85
2021/10/11 04:07:42;;;;;;;17.97;11.93;;;;;;;;;;5016379;28;20655;-85
2021/10/11 04:14:03;;;;;;;22.97;12.90;;;;;;;;;;5004786;28;20533;-85
2021/10/11 04:17:07;;;;;;;21.03;13.17;;;;;;;;;;5004762;28;20537;-85
2021/10/11 04:20:11;;;;;;;19.40;12.20;;;;;;;;;;4993265;28;21106;-85
2021/10/11 04:23:15;;;;;;;22.17;12.80;;;;;;;;;;5005098;28;20541;-85
2021/10/11 04:26:19;;;;;;;23.23;13.60;;;;;;;;;;4993840;28;20943;-85
2021/10/11 04:29:24;;;;;;;21.90;13.47;;;;;;;;;;5012504;28;20643;-85
2021/10/11 04:32:28;;;;;;;22.70;14.07;;;;;;;;;;5011788;28;20615;-85
2021/10/11 04:35:32;;;;;;;18.37;12.23;;;;;;;;;;5023296;28;20611;-86
2021/10/11 04:38:36;;;;;;;22.57;14.50;;;;;;;;;;5033997;28;21196;-85
2021/10/11 04:41:40;;;;;;;23.67;14.67;;;;;;;;;;5018295;28;20587;-85
2021/10/11 04:44:45;;;;;;;24.40;14.57;;;;;;;;;;5012953;28;20956;-85
2021/10/11 04:47:49;;;;;;;24.00;14.53;;;;;;;;;;5019214;28;20687;-85
2021/10/11 04:50:53;;;;;;;26.00;15.60;;;;;;;;;;5023849;28;20588;-85
2021/10/11 04:53:58;;;;;;;21.57;13.33;;;;;;;;;;5007503;28;20947;-85
2021/10/11 04:57:02;;;;;;;23.13;13.83;;;;;;;;;;5020843;28;20977;-85
2021/10/11 05:00:07;;;;;;;23.20;14.40;;;;;;;;;;5023598;28;20619;-85
2021/10/11 05:03:11;;;;;;;22.77;14.37;;;;;;;;;;5023268;28;20588;-86
2021/10/11 05:06:15;;;;;;;23.93;15.20;;;;;;;;;;5004856;28;21206;-85
2021/10/11 05:09:19;;;;;;;21.03;13.70;;;;;;;;;;5023115;28;20620;-85
2021/10/11 05:12:23;;;;;;;22.80;13.30;;;;;;;;;;5022879;28;20947;-85
2021/10/11 05:15:28;;;;;;;22.80;14.03;;;;;;;;;;5011910;28;20588;-86
2021/10/11 05:18:32;;;;;;;23.70;13.90;;;;;;;;;;5022991;28;20643;-85
2021/10/11 05:21:37;;;;;;;22.90;14.30;;;;;;;;;;5023195;28;20528;-85
2021/10/11 05:24:41;;;;;;;19.77;13.33;;;;;;;;;;5023107;28;20607;-85
2021/10/11 05:27:45;;;;;;;20.13;13.00;;;;;;;;;;5022741;28;21260;-85
2021/10/11 05:30:50;;;;;;;22.17;13.53;;;;;;;;;;5003507;28;20639;-85
2021/10/11 05:33:55;;;;;;;21.80;13.57;;;;;;;;;;5032436;28;20611;-85
2021/10/11 05:36:59;;;;;;;20.67;13.73;;;;;;;;;;5022690;28;20583;-85
2021/10/11 05:40:08;;;;;;;21.57;13.70;;;;;;;;;;5034131;28;20544;-85
2021/10/11 05:43:12;;;;;;;21.30;13.40;;;;;;;;;;5023166;28;20536;-85
2021/10/11 05:46:16;;;;;;;21.37;13.43;;;;;;;;;;5014189;28;20552;-85
2021/10/11 05:49:20;;;;;;;22.57;14.73;;;;;;;;;;5002892;28;20635;-85
2021/10/11 05:52:24;;;;;;;24.10;14.63;;;;;;;;;;5033883;28;20608;-86
2021/10/11 05:55:30;;;;;;;20.80;13.77;;;;;;;;;;5009690;28;21205;-85
2021/10/11 05:58:35;;;;;;;23.20;13.93;;;;;;;;;;5002958;28;20715;-85
2021/10/11 06:01:39;;;;;;;24.10;13.77;;;;;;;;;;5002710;28;21095;-85
2021/10/11 06:04:44;;;;;;;25.57;15.70;;;;;;;;;;5015102;28;20598;-85
2021/10/11 06:07:48;;;;;;;30.17;17.93;;;;;;;;;;5010210;28;20658;-85
2021/10/11 06:10:54;;;;;;;23.80;15.00;;;;;;;;;;5011441;28;21088;-85
2021/10/11 06:13:59;;;;;;;25.60;15.60;;;;;;;;;;5022229;28;20592;-85
2021/10/11 06:17:03;;;;;;;29.50;16.77;;;;;;;;;;5022197;28;20572;-85
2021/10/11 06:20:07;;;;;;;27.93;17.63;;;;;;;;;;5031267;28;20550;-86
2021/10/11 06:23:13;;;;;;;24.97;16.87;;;;;;;;;;5034953;28;20958;-85
2021/10/11 06:26:17;;;;;;;27.20;17.17;;;;;;;;;;5044692;28;20587;-85
2021/10/11 06:29:21;;;;;;;25.40;16.57;;;;;;;;;;5010194;28;20639;-85
2021/10/11 06:32:25;;;;;;;28.80;16.30;;;;;;;;;;5009976;28;20586;-85
2021/10/11 06:35:31;;;;;;;26.50;16.77;;;;;;;;;;5004680;28;21157;-85
2021/10/11 06:38:36;;;;;;;28.10;17.37;;;;;;;;;;5010195;28;20657;-85
2021/10/11 06:41:40;;;;;;;31.20;18.17;;;;;;;;;;5022180;28;21141;-85
2021/10/11 06:44:44;;;;;;;38.33;20.37;;;;;;;;;;5021777;28;20587;-85
2021/10/11 06:47:48;;;;;;;29.03;17.67;;;;;;;;;;5009958;28;20674;-85
2021/10/11 06:50:52;;;;;;;29.57;17.73;;;;;;;;;;5044377;28;20591;-85
2021/10/11 06:53:56;;;;;;;27.47;17.90;;;;;;;;;;5033003;28;20551;-85
2021/10/11 06:57:01;;;;;;;27.97;17.90;;;;;;;;;;5010348;28;20970;-85
2021/10/11 07:00:05;;;;;;;28.87;16.33;;;;;;;;;;5032490;28;20615;-85
2021/10/11 07:03:09;;;;;;;28.47;18.23;;;;;;;;;;5011742;28;20605;-85
2021/10/11 07:06:19;;;;;;;32.63;19.70;;;;;;;;;;5031553;28;20592;-86
2021/10/11 07:09:23;;;;;;;28.60;19.13;;;;;;;;;;5009361;28;20667;-85
2021/10/11 07:12:27;;;;;;;31.70;19.30;;;;;;;;;;5010137;28;20589;-85
2021/10/11 07:15:33;;;;;;;29.87;18.73;;;;;;;;;;5003068;28;20584;-85
2021/10/11 07:18:38;;;;;;;28.60;18.87;;;;;;;;;;5025652;23;20706;-71
2021/10/11 07:21:42;;;;;;;44.43;19.13;;;;;;;;;;5044717;28;21249;-71
2021/10/11 07:24:47;;;;;;;32.50;18.47;;;;;;;;;;5037428;28;20543;-72
2021/10/11 07:27:51;;;;;;;27.53;16.90;;;;;;;;;;5042259;28;20614;-72
2021/10/11 07:30:56;;;;;;;24.40;17.43;;;;;;;;;;5056229;28;21243;-71
2021/10/11 07:34:00;;;;;;;26.17;16.53;;;;;;;;;;5055603;28;20184;-72
2021/10/11 07:37:05;;;;;;;26.03;18.17;;;;;;;;;;5055845;28;21232;-73
2021/10/11 07:40:10;;;;;;;25.17;15.57;;;;;;;;;;5056032;28;20974;-72
2021/10/11 07:43:14;;;;;;;22.70;15.70;;;;;;;;;;5056536;28;20181;-72
2021/10/11 07:46:18;;;;;;;21.73;15.50;;;;;;;;;;5043861;28;20196;-72
2021/10/11 07:49:24;;;;;;;22.77;14.70;;;;;;;;;;5055011;28;20224;-71
2021/10/11 07:52:28;;;;;;;22.07;15.43;;;;;;;;;;5043566;28;20640;-71
2021/10/11 07:55:32;;;;;;;23.53;15.97;;;;;;;;;;5056026;28;20192;-72
2021/10/11 07:58:36;;;;;;;21.70;15.57;;;;;;;;;;5055496;28;20200;-72
2021/10/11 08:01:40;;;;;;;23.97;15.70;;;;;;;;;;5055131;28;20219;-72
2021/10/11 08:04:45;;;;;;;23.93;15.17;;;;;;;;;;5055527;28;20200;-72
2021/10/11 08:07:49;;;;;;;24.43;15.87;;;;;;;;;;5055655;28;20220;-72
2021/10/11 08:10:53;;;;;;;22.40;15.57;;;;;;;;;;5055301;28;20231;-72
2021/10/11 08:13:58;;;;;;;24.53;17.00;;;;;;;;;;5055590;28;20199;-72
2021/10/11 08:17:03;;;;;;;26.07;18.23;;;;;;;;;;5054769;28;20204;-72
2021/10/11 08:20:08;;;;;;;30.17;19.37;;;;;;;;;;5055249;28;20681;-72
2021/10/11 08:23:12;;;;;;;29.37;18.50;;;;;;;;;;5055272;28;20195;-72
2021/10/11 08:26:17;;;;;;;28.97;18.63;;;;;;;;;;5054814;28;20192;-72
2021/10/11 08:29:21;;;;;;;28.67;18.03;;;;;;;;;;5055275;28;20690;-72
2021/10/11 08:32:29;;;;;;;29.93;19.43;;;;;;;;;;5035691;28;20232;-73
2021/10/11 08:35:33;;;;;;;32.63;19.73;;;;;;;;;;5042419;28;20204;-72
2021/10/11 08:38:37;;;;;;;28.90;19.77;;;;;;;;;;5043199;28;20180;-73
2021/10/11 08:41:42;;;;;;;24.57;18.30;;;;;;;;;;5035432;28;20224;-73
2021/10/11 08:44:47;;;;;;;27.97;20.10;;;;;;;;;;5044760;28;20218;-72
2021/10/11 08:47:51;;;;;;;28.70;18.73;;;;;;;;;;5048991;28;20710;-72
2021/10/11 08:50:55;;;;;;;27.90;18.20;;;;;;;;;;5050347;28;20228;-72
2021/10/11 08:53:59;;;;;;;30.97;21.47;;;;;;;;;;5054936;28;20200;-72
2021/10/11 08:57:05;;;;;;;28.93;20.20;;;;;;;;;;5054567;28;20520;-72
2021/10/11 09:00:16;;;;;;;33.07;21.63;;;;;;;;;;5050166;28;20184;-72
2021/10/11 09:03:22;;;;;;;30.93;19.27;;;;;;;;;;5042084;28;20196;-72
2021/10/11 09:06:26;;;;;;;29.70;19.17;;;;;;;;;;5054412;28;20203;-72
2021/10/11 09:09:30;;;;;;;28.27;18.67;;;;;;;;;;5054456;28;20227;-72
2021/10/11 09:12:34;;;;;;;27.70;17.90;;;;;;;;;;5053014;28;20594;-72
2021/10/11 09:15:39;;;;;;;23.73;17.37;;;;;;;;;;5041897;28;20207;-72
2021/10/11 09:18:55;;;;;;;24.20;16.70;;;;;;;;;;5045178;28;20689;-73
2021/10/11 09:21:59;;;;;;;28.63;17.83;;;;;;;;;;5044731;28;20228;-73
2021/10/11 09:25:05;;;;;;;22.80;16.43;;;;;;;;;;5034392;28;20199;-70
2021/10/11 09:28:09;;;;;;;25.47;16.93;;;;;;;;;;5033757;28;20224;-72
2021/10/11 09:31:14;;;;;;;27.23;17.50;;;;;;;;;;5028718;28;20227;-72
2021/10/11 09:34:20;;;;;;;24.77;17.30;;;;;;;;;;5033731;28;20192;-71
2021/10/11 09:37:35;;;;;;;24.93;17.50;;;;;;;;;;5034226;28;20184;-72
2021/10/11 09:40:40;;;;;;;22.50;16.30;;;;;;;;;;5025685;28;20587;-72
2021/10/11 09:43:45;;;;;;;23.33;17.23;;;;;;;;;;5033125;28;20196;-71
2021/10/11 09:47:27;;;;;;;24.90;19.07;;;;;;;;;;5026407;28;20196;-72
2021/10/11 09:50:21;;;;;;;22.63;16.27;;;;;;;;;;5029312;28;20196;-71
2021/10/11 09:53:28;;;;;;;24.47;15.80;;;;;;;;;;5032788;28;20208;-72
2021/10/11 09:56:33;;;;;;;21.87;15.57;;;;;;;;;;5060078;22;20243;-75
2021/10/11 09:59:38;;;;;;;21.27;14.90;;;;;;;;;;5054176;28;20684;-76
2021/10/11 10:02:45;;;;;;;25.30;15.33;;;;;;;;;;5033903;28;20196;-75
2021/10/11 10:05:55;;;;;;;19.40;14.83;;;;;;;;;;5033050;28;20211;-75
2021/10/11 10:09:04;;;;;;;20.10;13.37;;;;;;;;;;5014058;28;20714;-75
2021/10/11 10:12:08;;;;;;;20.87;14.37;;;;;;;;;;5013722;28;20228;-75
2021/10/11 10:15:23;;;;;;;19.17;13.43;;;;;;;;;;5032171;28;20199;-75
2021/10/11 10:18:46;;;;;;;20.20;13.70;;;;;;;;;;5020447;28;20571;-76
2021/10/11 10:21:50;;;;;;;21.20;13.77;;;;;;;;;;5033654;28;20231;-76
2021/10/11 10:25:09;;;;;;;21.23;13.33;;;;;;;;;;5021099;28;20567;-76
2021/10/11 10:28:14;;;;;;;21.17;13.53;;;;;;;;;;5033169;28;20686;-76
2021/10/11 10:31:28;;;;;;;17.37;13.00;;;;;;;;;;5021209;28;20718;-76
2021/10/11 10:34:33;;;;;;;19.13;12.13;;;;;;;;;;4998995;28;20191;-76
2021/10/11 10:37:38;;;;;;;18.20;12.67;;;;;;;;;;5032865;28;20187;-76
2021/10/11 10:40:42;;;;;;;18.43;11.93;;;;;;;;;;5033676;28;20595;-74
2021/10/11 10:43:46;;;;;;;18.47;12.37;;;;;;;;;;5020925;28;20204;-76
2021/10/11 10:47:02;;;;;;;17.70;11.77;;;;;;;;;;5032733;28;20591;-76
2021/10/11 10:50:21;;;;;;;15.83;11.70;;;;;;;;;;5013596;28;20228;-76
2021/10/11 10:53:28;;;;;;;18.70;12.40;;;;;;;;;;5022334;28;20204;-76
2021/10/11 10:56:32;;;;;;;20.00;11.70;;;;;;;;;;5026992;28;20574;-76
2021/10/11 10:59:37;;;;;;;15.57;12.03;;;;;;;;;;5032775;28;20195;-76
2021/10/11 11:02:45;;;;;;;19.37;11.90;;;;;;;;;;5039520;28;20227;-76
2021/10/11 11:05:52;;;;;;;22.43;11.73;;;;;;;;;;5039011;28;20192;-76
2021/10/11 11:08:58;;;;;;;14.83;11.20;;;;;;;;;;5027051;28;20257;-75
2021/10/11 11:12:03;;;;;;;16.57;10.90;;;;;;;;;;5039635;28;20231;-75
2021/10/11 11:15:11;;;;;;;15.97;11.97;;;;;;;;;;5040024;28;20191;-75
2021/10/11 11:18:19;;;;;;;14.23;10.67;;;;;;;;;;5039475;28;20195;-75
2021/10/11 11:21:25;;;;;;;17.87;11.13;;;;;;;;;;5027656;28;20223;-75
2021/10/11 11:24:30;;;;;;;16.90;10.93;;;;;;;;;;5039935;28;20195;-76
2021/10/11 11:27:36;;;;;;;16.63;12.23;;;;;;;;;;5027126;28;20199;-76
2021/10/11 11:30:41;;;;;;;14.63;10.63;;;;;;;;;;5026931;28;20243;-76
2021/10/11 11:33:50;;;;;;;18.07;11.63;;;;;;;;;;5020764;28;20682;-75
2021/10/11 11:36:55;;;;;;;17.43;10.20;;;;;;;;;;5036031;28;20200;-76
2021/10/11 11:40:07;;;;;;;16.20;11.03;;;;;;;;;;5017060;28;20555;-76
2021/10/11 11:43:12;;;;;;;25.60;10.87;;;;;;;;;;5038382;28;20196;-76
2021/10/11 11:46:16;;;;;;;15.03;9.43;;;;;;;;;;5038828;28;20207;-76
2021/10/11 11:49:24;;;;;;;21.47;8.97;;;;;;;;;;5026546;28;20682;-77
2021/10/11 11:52:33;;;;;;;11.63;8.87;;;;;;;;;;5038560;28;20225;-76
2021/10/11 11:55:38;;;;;;;13.47;9.80;;;;;;;;;;5037288;28;20208;-76
2021/10/11 11:58:48;;;;;;;8.33;6.60;;;;;;;;;;5027239;28;20239;-77
2021/10/11 12:01:52;;;;;;;14.33;9.53;;;;;;;;;;5038952;28;20224;-75
2021/10/11 12:04:57;;;;;;;14.23;8.83;;;;;;;;;;5036857;28;20193;-77
2021/10/11 12:08:01;;;;;;;14.97;8.83;;;;;;;;;;5035012;28;20193;-76
2021/10/11 12:11:06;;;;;;;12.33;8.63;;;;;;;;;;5035803;28;20216;-76
2021/10/11 12:14:11;;;;;;;14.97;8.53;;;;;;;;;;5036085;28;20181;-76
2021/10/11 12:17:15;;;;;;;14.30;7.50;;;;;;;;;;5015937;28;20194;-76
2021/10/11 12:20:19;;;;;;;12.47;7.70;;;;;;;;;;5031796;28;20185;-76
2021/10/11 12:23:24;;;;;;;11.10;7.40;;;;;;;;;;5023548;28;20181;-76
2021/10/11 12:26:29;;;;;;;13.30;7.33;;;;;;;;;;5023874;28;20185;-76
2021/10/11 12:29:36;;;;;;;12.73;7.40;;;;;;;;;;5012389;28;20667;-77
2021/10/11 12:32:40;;;;;;;11.73;8.20;;;;;;;;;;5023294;28;20549;-76
2021/10/11 12:35:46;;;;;;;11.40;7.70;;;;;;;;;;5036011;28;20180;-76
2021/10/11 12:38:50;;;;;;;14.00;7.83;;;;;;;;;;5005691;28;20189;-76
2021/10/11 12:41:55;;;;;;;12.23;8.73;;;;;;;;;;5022921;28;20229;-76
2021/10/11 12:45:00;;;;;;;10.83;7.80;;;;;;;;;;5035153;28;20188;-75
2021/10/11 12:48:05;;;;;;;12.20;8.40;;;;;;;;;;5034612;28;20177;-75
2021/10/11 12:51:09;;;;;;;14.43;9.13;;;;;;;;;;5016004;28;20226;-75
2021/10/11 12:54:16;;;;;;;10.60;8.07;;;;;;;;;;5032931;28;20196;-75
2021/10/11 12:57:26;;;;;;;13.67;8.23;;;;;;;;;;5023065;28;20212;-75
2021/10/11 13:00:31;;;;;;;14.23;8.23;;;;;;;;;;5022684;28;20181;-75
2021/10/11 13:03:35;;;;;;;34.80;21.13;;;;;;;;;;5022447;28;20667;-75
2021/10/11 13:06:44;;;;;;;16.57;11.30;;;;;;;;;;5023166;28;20204;-76
2021/10/11 13:09:48;;;;;;;21.20;14.07;;;;;;;;;;5022511;28;20224;-75
2021/10/11 13:12:54;;;;;;;11.27;8.47;;;;;;;;;;5022303;28;20200;-75
2021/10/11 13:16:00;;;;;;;15.23;7.77;;;;;;;;;;5015568;28;20189;-75
2021/10/11 13:19:05;;;;;;;15.57;9.60;;;;;;;;;;5022448;28;20185;-75
2021/10/11 13:22:12;;;;;;;12.17;8.03;;;;;;;;;;5033742;28;20703;-75
2021/10/11 13:25:16;;;;;;;14.47;9.10;;;;;;;;;;5035521;28;20196;-77
2021/10/11 13:28:20;;;;;;;10.60;7.90;;;;;;;;;;5023542;28;20652;-76
2021/10/11 13:35:05;;;;;;;12.00;8.10;;;;;;;;;;5024310;28;20188;-77
2021/10/11 13:41:47;;;;;;;12.87;8.43;;;;;;;;;;5023874;28;20217;-77
2021/10/11 14:26:20;;;;;;;13.47;8.13;;;;;;;;;;5024306;28;20632;-77
2021/10/11 14:28:44;;;;;;;11.33;7.13;;;;;;;;;;5001327;28;20204;-78
2021/10/11 14:32:18;;;;;;;12.43;6.70;;;;;;;;;;5035042;28;20217;-77
2021/10/11 16:00:18;;;;;;;10.70;7.23;;;;;;;;;;5030199;28;20185;-76
2021/10/11 16:03:32;;;;;;;11.93;8.00;;;;;;;;;;5032138;28;20189;-77
2021/10/11 16:06:36;;;;;;;12.73;7.70;;;;;;;;;;5032029;28;20201;-76
2021/10/11 16:09:41;;;;;;;18.13;8.17;;;;;;;;;;5019761;28;20604;-76
2021/10/11 16:12:46;;;;;;;13.10;7.83;;;;;;;;;;5032163;28;20188;-76
2021/10/11 16:15:50;;;;;;;14.37;8.47;;;;;;;;;;5008699;28;20196;-76
2021/10/11 16:18:54;;;;;;;15.63;8.07;;;;;;;;;;5008394;28;20189;-76
2021/10/11 16:21:58;;;;;;;10.90;7.70;;;;;;;;;;5019863;28;20556;-76
2021/10/11 16:25:07;;;;;;;11.87;8.23;;;;;;;;;;5031924;28;20188;-76
2021/10/11 16:28:12;;;;;;;16.90;8.83;;;;;;;;;;5001841;28;20178;-76
2021/10/11 16:31:18;;;;;;;11.23;8.50;;;;;;;;;;5029662;28;20236;-76
2021/10/11 16:34:25;;;;;;;13.60;8.27;;;;;;;;;;5029690;28;20197;-77
2021/10/11 16:37:29;;;;;;;16.63;9.77;;;;;;;;;;5019394;28;20205;-77
2021/10/11 16:40:34;;;;;;;18.40;9.70;;;;;;;;;;5019358;28;20188;-77
2021/10/11 16:43:39;;;;;;;12.80;8.97;;;;;;;;;;5019415;28;20197;-77
2021/10/11 16:46:43;;;;;;;12.70;8.87;;;;;;;;;;5031707;28;20189;-77
2021/10/11 16:49:48;;;;;;;12.30;8.63;;;;;;;;;;5008439;28;20647;-76
2021/10/11 16:52:52;;;;;;;15.90;9.13;;;;;;;;;;5023956;28;20185;-76
2021/10/11 16:55:56;;;;;;;19.33;9.83;;;;;;;;;;4994427;28;20557;-77
2021/10/11 16:59:04;;;;;;;14.77;8.43;;;;;;;;;;5019540;28;20210;-76
2021/10/11 17:02:08;;;;;;;12.73;8.10;;;;;;;;;;4977495;28;20221;-76
2021/10/11 17:05:18;;;;;;;16.53;8.90;;;;;;;;;;5017476;28;20196;-76
2021/10/11 17:08:22;;;;;;;13.60;9.80;;;;;;;;;;5019282;28;20549;-76
2021/10/11 17:11:27;;;;;;;14.70;9.03;;;;;;;;;;5008768;28;21043;-77
2021/10/11 17:14:31;;;;;;;17.80;10.03;;;;;;;;;;5008817;28;20181;-77
2021/10/11 17:17:35;;;;;;;13.50;9.17;;;;;;;;;;5032691;28;20185;-77
2021/10/11 17:20:39;;;;;;;14.23;8.93;;;;;;;;;;5020520;28;20224;-77
2021/10/11 17:23:43;;;;;;;14.30;9.30;;;;;;;;;;5019659;28;20645;-77
2021/10/11 17:26:48;;;;;;;13.50;9.73;;;;;;;;;;5012206;28;20181;-77
2021/10/11 17:29:52;;;;;;;18.33;10.37;;;;;;;;;;5000699;28;20190;-76
2021/10/11 17:32:56;;;;;;;14.60;10.23;;;;;;;;;;5011434;28;20190;-77
2021/10/11 17:36:00;;;;;;;16.07;9.23;;;;;;;;;;5014228;28;20237;-77
2021/10/11 17:39:04;;;;;;;14.23;10.13;;;;;;;;;;5019672;28;20652;-77
2021/10/11 17:42:09;;;;;;;19.37;11.13;;;;;;;;;;5030596;28;20568;-77
2021/10/11 17:45:13;;;;;;;15.53;9.83;;;;;;;;;;4999958;28;20192;-78
2021/10/11 17:48:17;;;;;;;18.10;10.97;;;;;;;;;;5000110;28;20194;-76
2021/10/11 17:51:22;;;;;;;15.10;9.97;;;;;;;;;;5011892;28;20237;-77
2021/10/11 17:54:26;;;;;;;17.47;10.67;;;;;;;;;;5000591;28;20186;-77
2021/10/11 17:57:30;;;;;;;22.43;11.00;;;;;;;;;;5031027;28;20217;-77
2021/10/11 18:00:34;;;;;;;15.87;11.17;;;;;;;;;;5031944;28;20181;-77
2021/10/11 18:03:39;;;;;;;14.97;10.13;;;;;;;;;;5030713;28;20192;-77
2021/10/11 18:06:43;;;;;;;19.23;10.50;;;;;;;;;;5017940;28;20189;-77
2021/10/11 18:09:47;;;;;;;17.30;10.27;;;;;;;;;;5018997;28;20198;-77
2021/10/11 18:12:51;;;;;;;18.73;10.70;;;;;;;;;;5018894;28;20200;-78
2021/10/11 18:15:55;;;;;;;14.47;10.23;;;;;;;;;;5022295;28;20192;-77
2021/10/11 18:18:59;;;;;;;16.13;10.27;;;;;;;;;;5018847;28;20544;-77
2021/10/11 18:22:03;;;;;;;16.80;11.10;;;;;;;;;;5031328;28;20228;-78
2021/10/11 18:25:08;;;;;;;19.90;10.83;;;;;;;;;;4996988;28;20896;-77
2021/10/11 18:28:13;;;;;;;14.80;10.33;;;;;;;;;;5007383;28;20181;-77
2021/10/11 18:31:18;;;;;;;13.70;10.07;;;;;;;;;;5021732;28;20236;-77
2021/10/11 18:34:22;;;;;;;18.43;11.10;;;;;;;;;;5006248;28;20201;-77
2021/10/11 18:37:28;;;;;;;16.33;10.20;;;;;;;;;;5028129;28;20200;-76
2021/10/11 18:40:32;;;;;;;14.87;9.90;;;;;;;;;;5010144;28;20200;-77
2021/10/11 18:43:36;;;;;;;13.37;9.33;;;;;;;;;;5015228;28;20200;-77
2021/10/11 18:46:41;;;;;;;16.60;9.33;;;;;;;;;;5003800;28;20208;-77
2021/10/11 18:49:45;;;;;;;15.77;9.93;;;;;;;;;;5002052;28;20201;-76
2021/10/11 18:52:49;;;;;;;12.93;8.83;;;;;;;;;;4999463;28;20213;-76
2021/10/11 18:55:54;;;;;;;15.77;10.67;;;;;;;;;;5023006;28;20212;-77
2021/10/11 18:58:58;;;;;;;17.93;10.93;;;;;;;;;;5011234;28;20546;-76
2021/10/11 19:02:03;;;;;;;17.03;10.83;;;;;;;;;;5020053;28;20546;-76
2021/10/11 19:05:07;;;;;;;18.90;11.50;;;;;;;;;;4995363;28;20204;-76
2021/10/11 19:08:12;;;;;;;19.30;11.80;;;;;;;;;;5028673;28;20181;-77
2021/10/11 19:11:16;;;;;;;16.97;12.30;;;;;;;;;;5005928;28;20595;-77
2021/10/11 19:14:21;;;;;;;21.13;12.83;;;;;;;;;;5018227;28;20201;-77
2021/10/11 19:17:26;;;;;;;16.07;11.63;;;;;;;;;;5033453;28;20192;-76
2021/10/11 19:20:30;;;;;;;19.97;13.53;;;;;;;;;;5032864;28;20193;-77
2021/10/11 19:23:34;;;;;;;20.97;14.43;;;;;;;;;;5033730;28;20201;-77
2021/10/11 19:26:39;;;;;;;26.10;15.93;;;;;;;;;;5032615;28;20189;-77
2021/10/11 19:29:43;;;;;;;25.93;17.23;;;;;;;;;;5033957;28;20549;-77
2021/10/11 19:32:47;;;;;;;29.23;18.50;;;;;;;;;;4984554;28;20213;-78
2021/10/11 19:35:51;;;;;;;28.53;18.63;;;;;;;;;;5007305;28;20708;-79
2021/10/11 19:38:55;;;;;;;30.07;20.40;;;;;;;;;;5021818;28;20185;-77
2021/10/11 19:42:00;;;;;;;33.03;21.80;;;;;;;;;;5033964;28;20217;-77
2021/10/11 19:45:05;;;;;;;35.53;23.27;;;;;;;;;;5033862;28;20192;-77
2021/10/11 19:48:10;;;;;;;36.87;22.57;;;;;;;;;;5027284;28;20196;-77
2021/10/11 19:51:20;;;;;;;35.80;23.27;;;;;;;;;;5014091;28;20224;-77
2021/10/11 19:54:25;;;;;;;33.50;22.80;;;;;;;;;;5013380;28;20190;-77
2021/10/11 19:57:29;;;;;;;37.93;22.57;;;;;;;;;;5013937;28;20217;-77
2021/10/11 20:00:33;;;;;;;36.53;21.67;;;;;;;;;;5016048;28;20197;-77
2021/10/11 20:03:38;;;;;;;34.83;22.17;;;;;;;;;;5021275;28;20193;-76
2021/10/11 20:06:43;;;;;;;35.03;23.30;;;;;;;;;;5009394;28;20201;-77
2021/10/11 20:09:47;;;;;;;38.13;23.80;;;;;;;;;;5021335;28;20201;-77
2021/10/11 20:12:53;;;;;;;32.47;20.00;;;;;;;;;;5020287;28;20229;-77
2021/10/11 20:15:57;;;;;;;34.37;20.93;;;;;;;;;;5009799;28;20193;-77
2021/10/11 20:19:02;;;;;;;34.90;21.33;;;;;;;;;;5032896;28;20664;-77
2021/10/11 20:22:07;;;;;;;32.40;19.93;;;;;;;;;;5033603;28;20235;-78
2021/10/11 20:25:12;;;;;;;33.67;19.23;;;;;;;;;;5032513;28;20188;-77
2021/10/11 20:28:16;;;;;;;29.27;20.03;;;;;;;;;;5020861;28;20826;-77
2021/10/11 20:31:20;;;;;;;29.97;18.80;;;;;;;;;;5032435;28;20737;-78
2021/10/11 20:34:24;;;;;;;32.13;19.43;;;;;;;;;;4999574;28;20914;-77
2021/10/11 20:37:29;;;;;;;30.67;18.17;;;;;;;;;;5021488;28;20209;-77
2021/10/11 20:40:33;;;;;;;30.20;19.30;;;;;;;;;;5020365;28;20208;-77